Time;durP1;ratioP1;P1;durP2;ratioP2;P2;SDS_P1;SDS_P2;PMS_P1;PMS_P2;Temp;Humidity;BMP_temperature;BMP_pressure;BME280_temperature;BME280_humidity;BME280_pressure;Samples;Min_cycle;Max_cycle;Signal;HPM_P1;HPM_P2
2022/05/06 00:02:21;;;;;;;13.13;11.83;;;12.90;99.90;;;;;;5094549;28;20931;-74
2022/05/06 00:04:48;;;;;;;13.80;12.03;;;12.80;99.90;;;;;;5095014;28;20609;-74
2022/05/06 00:07:15;;;;;;;13.83;11.27;;;12.80;99.90;;;;;;5094866;28;20635;-74
2022/05/06 00:09:42;;;;;;;14.27;12.77;;;12.80;99.90;;;;;;5076270;28;20580;-75
2022/05/06 00:12:10;;;;;;;14.57;12.10;;;12.80;99.90;;;;;;5094479;28;20621;-75
2022/05/06 00:14:36;;;;;;;13.30;12.00;;;12.80;99.90;;;;;;5093759;28;20625;-74
2022/05/06 00:17:04;;;;;;;12.77;11.50;;;12.80;99.90;;;;;;5094370;28;20666;-74
2022/05/06 00:19:30;;;;;;;13.23;10.60;;;12.80;99.90;;;;;;5093845;28;20660;-74
2022/05/06 00:21:57;;;;;;;15.27;12.47;;;12.80;99.90;;;;;;5093993;28;20993;-75
2022/05/06 00:24:23;;;;;;;13.00;11.63;;;12.80;99.90;;;;;;5093537;28;21134;-75
2022/05/06 00:26:50;;;;;;;14.93;12.00;;;12.80;99.90;;;;;;5093970;28;20969;-74
2022/05/06 00:29:17;;;;;;;15.27;13.30;;;12.80;99.90;;;;;;5093733;28;20606;-74
2022/05/06 00:31:43;;;;;;;13.50;12.00;;;12.80;99.90;;;;;;5075943;28;20974;-74
2022/05/06 00:34:10;;;;;;;13.23;11.93;;;12.80;99.90;;;;;;5093589;28;21198;-74
2022/05/06 00:36:37;;;;;;;15.80;13.40;;;12.80;99.90;;;;;;5093082;28;20640;-75
2022/05/06 00:39:03;;;;;;;18.20;12.70;;;12.80;99.90;;;;;;5093587;28;20980;-74
2022/05/06 00:41:36;;;;;;;16.57;12.37;;;12.80;99.90;;;;;;5093618;28;20612;-74
2022/05/06 00:44:07;;;;;;;15.13;12.00;;;12.80;99.90;;;;;;5096066;28;20616;-74
2022/05/06 00:46:37;;;;;;;18.77;13.40;;;12.80;99.90;;;;;;5098349;28;20613;-75
2022/05/06 00:49:12;;;;;;;14.60;11.97;;;12.80;99.90;;;;;;5097743;28;20593;-75
2022/05/06 00:51:39;;;;;;;13.83;12.33;;;12.80;99.90;;;;;;5096999;28;20627;-74
2022/05/06 00:54:06;;;;;;;15.63;12.43;;;12.80;99.90;;;;;;5098083;28;20621;-74
2022/05/06 00:56:33;;;;;;;15.83;12.07;;;12.70;99.90;;;;;;5097635;28;20620;-75
2022/05/06 00:59:00;;;;;;;14.57;13.07;;;12.70;99.90;;;;;;5097300;28;20717;-75
2022/05/06 01:01:26;;;;;;;13.60;12.33;;;12.80;99.90;;;;;;5098315;28;20731;-74
2022/05/06 01:03:53;;;;;;;15.23;13.63;;;12.80;99.90;;;;;;5098078;28;20704;-74
2022/05/06 01:06:21;;;;;;;17.43;12.53;;;12.70;99.90;;;;;;5098247;28;20623;-74
2022/05/06 01:08:47;;;;;;;13.43;12.13;;;12.60;99.90;;;;;;5098152;28;20613;-74
2022/05/06 01:11:14;;;;;;;20.03;14.00;;;12.60;99.90;;;;;;5098064;28;20617;-74
2022/05/06 01:13:43;;;;;;;18.50;14.07;;;12.60;99.90;;;;;;5097998;28;20617;-74
2022/05/06 01:16:13;;;;;;;15.60;12.83;;;12.70;99.90;;;;;;5097373;28;20620;-74
2022/05/06 01:18:40;;;;;;;14.00;12.80;;;12.70;99.90;;;;;;5079106;28;21319;-74
2022/05/06 01:21:08;;;;;;;13.87;12.00;;;12.70;99.90;;;;;;5097487;28;20617;-74
2022/05/06 01:23:37;;;;;;;12.80;11.50;;;12.70;99.90;;;;;;5097540;28;20681;-74
2022/05/06 01:26:04;;;;;;;17.07;12.60;;;12.70;99.90;;;;;;5097457;28;20625;-74
2022/05/06 01:28:33;;;;;;;13.43;11.97;;;12.70;99.90;;;;;;5097939;28;20613;-74
2022/05/06 01:31:01;;;;;;;17.90;11.90;;;12.70;99.90;;;;;;5080185;28;20605;-74
2022/05/06 01:33:31;;;;;;;14.73;11.83;;;12.60;99.90;;;;;;5097706;28;20636;-74
2022/05/06 01:35:59;;;;;;;13.47;12.10;;;12.60;99.90;;;;;;5097486;28;20627;-74
2022/05/06 01:38:42;;;;;;;13.63;12.20;;;12.60;99.90;;;;;;5097240;28;20621;-74
2022/05/06 01:41:24;;;;;;;13.80;11.93;;;12.60;99.90;;;;;;5097517;28;20989;-74
2022/05/06 01:43:55;;;;;;;13.30;11.30;;;12.60;99.90;;;;;;5097332;28;20188;-74
2022/05/06 01:46:24;;;;;;;14.02;11.80;;;12.70;99.90;;;;;;5097176;28;20617;-74
2022/05/06 01:48:52;;;;;;;11.87;10.13;;;12.70;99.90;;;;;;5097905;28;20260;-74
2022/05/06 01:51:20;;;;;;;12.20;10.20;;;12.80;99.90;;;;;;5097137;28;20976;-74
2022/05/06 01:53:47;;;;;;;10.97;9.87;;;12.90;99.90;;;;;;5097348;28;21173;-74
2022/05/06 01:56:18;;;;;;;11.43;10.10;;;12.90;99.90;;;;;;5096185;28;20609;-74
2022/05/06 01:58:45;;;;;;;15.30;9.53;;;13.00;99.90;;;;;;5078631;28;20206;-74
2022/05/06 02:01:11;;;;;;;10.73;8.90;;;13.00;99.90;;;;;;5097128;28;20616;-74
2022/05/06 02:06:23;;;;;;;10.30;7.68;;;13.10;99.90;;;;;;5075764;28;20637;-74
2022/05/06 02:08:49;;;;;;;11.90;8.03;;;13.10;99.90;;;;;;5076748;28;20208;-74
2022/05/06 02:11:16;;;;;;;9.37;8.13;;;13.10;99.90;;;;;;5075356;28;20613;-74
2022/05/06 02:13:43;;;;;;;13.83;8.53;;;13.10;99.90;;;;;;5075019;28;20599;-73
2022/05/06 02:16:10;;;;;;;9.83;7.90;;;13.10;99.90;;;;;;5074460;28;20633;-73
2022/05/06 02:18:36;;;;;;;11.07;9.40;;;13.20;99.90;;;;;;5076244;28;20610;-74
2022/05/06 02:21:03;;;;;;;10.97;8.40;;;13.20;99.90;;;;;;5075038;28;20629;-74
2022/05/06 02:23:29;;;;;;;10.80;8.63;;;13.20;99.90;;;;;;5076542;28;20625;-73
2022/05/06 02:25:56;;;;;;;8.70;7.80;;;13.10;99.90;;;;;;5076210;28;20621;-74
2022/05/06 02:28:23;;;;;;;9.30;8.40;;;13.10;99.90;;;;;;5076113;28;21196;-73
2022/05/06 02:33:34;;;;;;;13.85;8.80;;;13.10;99.90;;;;;;5076255;28;21144;-74
2022/05/06 02:36:02;;;;;;;13.27;8.60;;;13.10;99.90;;;;;;5076334;28;20204;-73
2022/05/06 02:38:29;;;;;;;10.00;7.90;;;13.00;99.90;;;;;;5075959;28;20588;-74
2022/05/06 02:40:56;;;;;;;11.40;8.27;;;13.00;99.90;;;;;;5076559;28;20669;-74
2022/05/06 02:43:22;;;;;;;9.13;8.18;;;13.00;99.90;;;;;;5075789;28;20606;-74
2022/05/06 02:45:49;;;;;;;11.20;8.10;;;13.00;99.90;;;;;;5075727;28;20204;-74
2022/05/06 02:48:15;;;;;;;19.63;8.07;;;13.00;99.90;;;;;;5076141;28;20610;-73
2022/05/06 02:50:42;;;;;;;9.35;7.85;;;13.00;99.90;;;;;;5075630;28;20602;-74
2022/05/06 02:53:09;;;;;;;10.20;7.60;;;13.00;99.90;;;;;;5075867;28;20204;-73
2022/05/06 02:55:35;;;;;;;9.23;7.50;;;13.00;99.90;;;;;;5075642;28;20618;-74
2022/05/06 02:58:03;;;;;;;9.13;8.23;;;13.00;99.90;;;;;;5075254;28;20969;-74
2022/05/06 03:00:30;;;;;;;8.63;7.43;;;13.00;99.90;;;;;;5074922;28;20665;-73
2022/05/06 03:02:57;;;;;;;8.00;7.30;;;13.00;99.90;;;;;;5075933;28;20667;-74
2022/05/06 03:05:24;;;;;;;8.70;7.27;;;13.00;99.90;;;;;;5075309;28;20673;-73
2022/05/06 03:07:51;;;;;;;9.40;7.67;;;13.00;99.90;;;;;;5093786;28;20645;-73
2022/05/06 03:10:18;;;;;;;7.73;7.03;;;12.90;99.90;;;;;;5095915;28;20964;-73
2022/05/06 03:12:46;;;;;;;19.87;8.60;;;12.90;99.90;;;;;;5077653;28;20607;-73
2022/05/06 03:15:13;;;;;;;8.07;7.00;;;12.90;99.90;;;;;;5095834;28;20605;-74
2022/05/06 03:17:40;;;;;;;12.17;7.43;;;12.90;99.90;;;;;;5096168;28;20621;-73
2022/05/06 03:20:10;;;;;;;8.10;7.30;;;12.90;99.90;;;;;;5095774;28;20649;-74
2022/05/06 03:22:42;;;;;;;9.90;7.03;;;12.90;99.90;;;;;;5096486;28;20605;-73
2022/05/06 03:25:12;;;;;;;9.33;7.50;;;12.90;99.90;;;;;;5096104;28;20617;-73
2022/05/06 03:30:25;;;;;;;11.13;7.50;;;12.80;99.90;;;;;;5096230;28;20578;-74
2022/05/06 03:32:55;;;;;;;7.97;7.20;;;12.80;99.90;;;;;;5095241;28;20614;-73
2022/05/06 03:35:22;;;;;;;12.20;7.37;;;12.80;99.90;;;;;;5077189;28;20621;-74
2022/05/06 03:37:49;;;;;;;11.93;7.33;;;12.80;99.90;;;;;;5095870;28;20583;-74
2022/05/06 03:40:15;;;;;;;9.30;7.77;;;12.80;99.90;;;;;;5095243;28;20688;-74
2022/05/06 03:42:42;;;;;;;8.10;7.30;;;12.80;99.90;;;;;;5076287;28;20613;-74
2022/05/06 03:45:09;;;;;;;11.40;7.37;;;12.70;99.90;;;;;;5094121;28;20617;-74
2022/05/06 03:47:36;;;;;;;9.50;7.30;;;12.70;99.90;;;;;;5094080;28;20589;-73
2022/05/06 03:52:49;;;;;;;13.63;11.70;;;12.70;99.90;;;;;;5094204;28;20585;-73
2022/05/06 03:55:16;;;;;;;23.43;13.37;;;12.70;99.90;;;;;;5094451;28;20625;-73
2022/05/06 03:57:42;;;;;;;12.30;11.00;;;12.60;99.90;;;;;;5095056;28;20658;-73
2022/05/06 04:00:14;;;;;;;11.07;8.23;;;12.60;99.90;;;;;;5094590;28;20676;-73
2022/05/06 04:02:41;;;;;;;8.17;7.30;;;12.60;99.90;;;;;;5095028;28;20569;-73
2022/05/06 04:05:08;;;;;;;12.23;6.80;;;12.60;99.90;;;;;;5094419;28;20998;-73
2022/05/06 04:07:34;;;;;;;8.10;5.93;;;12.60;99.90;;;;;;5094460;28;20982;-74
2022/05/06 04:10:01;;;;;;;8.00;6.17;;;12.60;99.90;;;;;;5094572;28;20900;-73
2022/05/06 04:12:28;;;;;;;11.07;6.53;;;12.60;99.90;;;;;;5076367;28;20632;-73
2022/05/06 04:14:54;;;;;;;7.07;6.13;;;12.60;99.90;;;;;;5093983;28;20682;-74
2022/05/06 04:17:21;;;;;;;12.40;6.13;;;12.50;99.90;;;;;;5094007;28;20617;-73
2022/05/06 04:25:20;;;;;;;10.48;5.55;;;12.50;99.90;;;;;;5094533;28;20570;-73
2022/05/06 04:27:46;;;;;;;5.70;5.30;;;12.50;99.90;;;;;;5094196;28;20248;-73
2022/05/06 04:30:13;;;;;;;9.82;6.32;;;12.50;99.90;;;;;;5093475;28;20981;-73
2022/05/06 04:32:39;;;;;;;9.07;6.25;;;12.50;99.90;;;;;;5076455;28;20255;-73
2022/05/06 04:35:08;;;;;;;12.50;5.63;;;12.50;99.90;;;;;;5094175;28;20324;-73
2022/05/06 04:37:35;;;;;;;7.87;5.20;;;12.50;99.90;;;;;;5093280;28;20625;-73
2022/05/06 04:40:03;;;;;;;5.93;5.30;;;12.40;99.90;;;;;;5093287;28;21045;-73
2022/05/06 04:42:30;;;;;;;9.57;5.30;;;12.40;99.90;;;;;;5093539;28;20590;-73
2022/05/06 04:44:57;;;;;;;6.03;5.20;;;12.40;99.90;;;;;;5094088;28;20612;-73
2022/05/06 04:47:23;;;;;;;6.10;5.60;;;12.40;99.90;;;;;;5094261;28;20613;-73
2022/05/06 04:49:49;;;;;;;7.30;4.90;;;12.40;99.90;;;;;;5094320;28;20619;-73
2022/05/06 04:52:16;;;;;;;10.98;6.00;;;12.40;99.90;;;;;;5094663;28;20561;-73
2022/05/06 04:54:42;;;;;;;12.73;6.00;;;12.40;99.90;;;;;;5094560;28;20203;-73
2022/05/06 04:57:09;;;;;;;8.83;5.40;;;12.40;99.90;;;;;;5094219;28;20605;-74
2022/05/06 04:59:35;;;;;;;7.07;5.60;;;12.40;99.90;;;;;;5076034;28;20664;-74
2022/05/06 05:02:02;;;;;;;6.88;5.00;;;12.40;99.90;;;;;;5094407;28;20612;-73
2022/05/06 05:04:29;;;;;;;7.25;5.13;;;12.40;99.90;;;;;;5094301;28;20200;-74
2022/05/06 05:06:55;;;;;;;5.47;4.97;;;12.40;99.90;;;;;;5093997;28;20242;-73
2022/05/06 05:09:22;;;;;;;5.87;4.63;;;12.40;99.90;;;;;;5093926;28;21261;-73
2022/05/06 05:11:48;;;;;;;8.20;4.70;;;12.40;99.90;;;;;;5094028;28;20621;-74
2022/05/06 05:14:15;;;;;;;11.10;6.00;;;12.40;99.90;;;;;;5075775;28;21173;-73
2022/05/06 05:16:41;;;;;;;5.85;5.20;;;12.40;99.90;;;;;;5093355;28;20610;-73
2022/05/06 05:19:07;;;;;;;7.43;5.23;;;12.50;99.90;;;;;;5093216;28;20248;-73
2022/05/06 05:21:34;;;;;;;8.70;5.50;;;12.50;99.90;;;;;;5093164;28;20637;-74
2022/05/06 05:24:00;;;;;;;5.40;4.67;;;12.50;99.90;;;;;;5093848;28;20601;-73
2022/05/06 05:26:27;;;;;;;10.33;5.27;;;12.50;99.90;;;;;;5093950;28;20617;-74
2022/05/06 05:28:53;;;;;;;5.20;4.67;;;12.50;99.90;;;;;;5093732;28;20602;-74
2022/05/06 05:31:20;;;;;;;8.20;4.67;;;12.50;99.90;;;;;;5096613;28;20737;-74
2022/05/06 05:33:46;;;;;;;4.60;4.27;;;12.50;99.90;;;;;;5078846;28;20592;-74
2022/05/06 05:36:13;;;;;;;5.90;4.77;;;12.60;99.90;;;;;;5096351;28;21001;-74
2022/05/06 05:38:39;;;;;;;4.67;4.20;;;12.60;99.90;;;;;;5096913;28;21156;-74
2022/05/06 05:41:06;;;;;;;5.23;4.73;;;12.60;99.90;;;;;;5079005;28;20661;-74
2022/05/06 05:49:02;;;;;;;10.73;5.60;;;12.60;99.90;;;;;;5096735;28;20183;-73
2022/05/06 05:51:29;;;;;;;8.97;4.40;;;12.70;99.90;;;;;;5078190;28;20621;-70
2022/05/06 05:53:56;;;;;;;7.80;5.20;;;12.70;99.90;;;;;;5095654;28;20617;-70
2022/05/06 05:56:22;;;;;;;8.10;5.03;;;12.60;99.90;;;;;;5095709;28;20613;-71
2022/05/06 05:58:50;;;;;;;7.10;5.27;;;12.70;99.90;;;;;;5096027;28;20264;-71
2022/05/06 06:01:16;;;;;;;6.00;5.20;;;12.60;99.90;;;;;;5060936;28;21227;-71
2022/05/06 06:03:42;;;;;;;7.63;6.17;;;12.70;99.90;;;;;;5095821;28;20609;-71
2022/05/06 06:06:10;;;;;;;4.80;4.40;;;12.70;99.90;;;;;;5095405;28;20656;-72
2022/05/06 06:08:36;;;;;;;10.03;3.90;;;12.60;99.90;;;;;;5095582;28;21155;-72
2022/05/06 06:11:06;;;;;;;9.07;4.97;;;12.70;99.90;;;;;;5095772;28;20609;-72
2022/05/06 06:13:32;;;;;;;6.33;4.50;;;12.80;99.90;;;;;;5094914;28;20686;-73
2022/05/06 06:15:58;;;;;;;6.10;4.53;;;12.70;99.90;;;;;;5077164;28;20831;-70
2022/05/06 06:18:27;;;;;;;6.70;4.80;;;12.70;99.90;;;;;;5095139;28;20919;-70
2022/05/06 06:20:54;;;;;;;5.27;4.87;;;12.70;99.90;;;;;;5095594;28;20652;-71
2022/05/06 06:23:21;;;;;;;6.50;4.60;;;12.70;99.90;;;;;;5095507;28;21008;-71
2022/05/06 06:25:48;;;;;;;7.00;4.97;;;12.70;99.90;;;;;;5095422;28;20199;-70
2022/05/06 06:28:15;;;;;;;8.90;4.70;;;12.70;99.90;;;;;;5095183;28;20613;-71
2022/05/06 06:30:42;;;;;;;5.00;4.40;;;12.80;99.90;;;;;;5095313;28;20609;-70
2022/05/06 06:33:08;;;;;;;5.80;4.60;;;12.80;99.90;;;;;;5094655;28;20621;-70
2022/05/06 06:35:35;;;;;;;6.35;5.32;;;12.80;99.90;;;;;;5095278;28;20682;-70
2022/05/06 06:38:02;;;;;;;4.53;3.40;;;12.80;99.90;;;;;;5095192;28;20206;-70
2022/05/06 06:40:28;;;;;;;6.22;4.55;;;12.80;99.90;;;;;;5094208;28;20668;-70
2022/05/06 06:43:01;;;;;;;5.27;4.57;;;12.70;99.90;;;;;;5094421;28;20222;-72
2022/05/06 06:45:27;;;;;;;4.80;4.25;;;12.80;99.90;;;;;;5094589;28;20625;-72
2022/05/06 06:47:54;;;;;;;6.40;4.87;;;12.80;99.90;;;;;;5095003;28;20203;-72
2022/05/06 06:50:23;;;;;;;8.43;4.03;;;12.90;99.90;;;;;;5094253;28;20710;-71
2022/05/06 06:52:51;;;;;;;5.37;4.83;;;12.90;99.90;;;;;;5094618;28;20592;-70
2022/05/06 06:55:18;;;;;;;5.10;3.60;;;12.90;99.90;;;;;;5094721;28;21139;-71
2022/05/06 06:57:45;;;;;;;4.73;3.97;;;13.00;99.90;;;;;;5094455;28;21135;-71
2022/05/06 07:00:12;;;;;;;6.73;4.53;;;13.10;99.90;;;;;;5094656;28;20649;-71
2022/05/06 07:02:40;;;;;;;9.00;4.77;;;13.10;99.90;;;;;;5094061;28;20616;-71
2022/05/06 07:05:06;;;;;;;4.40;4.00;;;13.10;99.90;;;;;;5094531;28;20620;-71
2022/05/06 07:13:03;;;;;;;5.30;4.77;;;13.20;99.90;;;;;;5074052;28;20587;-71
2022/05/06 07:15:31;;;;;;;7.80;4.37;;;13.30;99.90;;;;;;5073812;28;20951;-71
2022/05/06 07:17:58;;;;;;;8.40;4.67;;;13.40;99.90;;;;;;5073940;28;21161;-72
2022/05/06 07:20:25;;;;;;;6.73;5.07;;;13.40;99.90;;;;;;5072876;28;20650;-70
2022/05/06 07:22:51;;;;;;;8.23;4.70;;;13.60;99.90;;;;;;5074055;28;20932;-71
2022/05/06 07:25:18;;;;;;;7.10;4.33;;;13.60;99.90;;;;;;5073721;28;20618;-72
2022/05/06 07:27:44;;;;;;;6.70;5.30;;;13.70;99.90;;;;;;5073639;28;20951;-70
2022/05/06 07:30:11;;;;;;;12.17;5.50;;;13.70;99.90;;;;;;5072185;28;20610;-71
2022/05/06 07:32:38;;;;;;;9.20;5.63;;;13.70;99.90;;;;;;5073811;28;20708;-71
2022/05/06 07:35:05;;;;;;;11.17;5.63;;;13.90;99.90;;;;;;5073725;28;20645;-71
2022/05/06 07:37:34;;;;;;;11.63;5.23;;;13.90;99.90;;;;;;5073984;28;20612;-72
2022/05/06 07:40:05;;;;;;;5.40;4.90;;;14.00;99.90;;;;;;5073336;28;20669;-71
2022/05/06 07:42:32;;;;;;;5.70;5.20;;;14.20;99.90;;;;;;5073820;28;20635;-71
2022/05/06 07:44:59;;;;;;;6.43;5.43;;;14.40;99.90;;;;;;5073374;28;20622;-72
2022/05/06 07:47:26;;;;;;;20.83;6.03;;;14.50;99.90;;;;;;5073440;28;20610;-72
2022/05/06 07:49:52;;;;;;;11.07;6.00;;;14.60;99.90;;;;;;5072569;28;20614;-72
2022/05/06 07:52:19;;;;;;;5.90;5.33;;;14.70;99.90;;;;;;5073616;28;20614;-70
2022/05/06 07:54:45;;;;;;;6.27;5.77;;;14.80;99.90;;;;;;5071568;28;20802;-70
2022/05/06 07:57:12;;;;;;;5.50;4.93;;;14.90;99.90;;;;;;5073224;28;20622;-71
2022/05/06 07:59:38;;;;;;;7.67;6.40;;;15.10;99.90;;;;;;5073425;28;21046;-72
2022/05/06 08:04:50;;;;;;;9.40;5.30;;;15.10;99.90;;;;;;5073415;28;20563;-71
2022/05/06 08:07:18;;;;;;;7.03;5.30;;;15.40;99.90;;;;;;5086997;28;20637;-71
2022/05/06 08:09:44;;;;;;;18.73;5.43;;;15.60;99.90;;;;;;5093362;28;20672;-72
2022/05/06 08:12:13;;;;;;;7.23;5.30;;;15.80;99.90;;;;;;5092888;28;20617;-70
2022/05/06 08:14:40;;;;;;;8.30;5.83;;;15.80;99.90;;;;;;5093114;28;20621;-72
2022/05/06 08:17:06;;;;;;;6.03;5.00;;;15.60;99.90;;;;;;5074640;28;20614;-71
2022/05/06 08:19:33;;;;;;;7.90;5.13;;;15.70;99.90;;;;;;5092723;28;20610;-71
2022/05/06 08:21:59;;;;;;;5.73;5.20;;;15.80;99.90;;;;;;5093325;28;20651;-71
2022/05/06 08:24:27;;;;;;;6.20;5.30;;;15.90;99.90;;;;;;5075667;28;20606;-71
2022/05/06 08:26:53;;;;;;;8.57;5.23;;;16.10;99.90;;;;;;5093193;28;20612;-72
2022/05/06 08:29:22;;;;;;;7.93;5.20;;;16.20;99.90;;;;;;5093873;28;20613;-71
2022/05/06 08:31:48;;;;;;;6.47;4.90;;;16.30;99.90;;;;;;5093744;28;20661;-71
2022/05/06 08:34:14;;;;;;;7.50;5.17;;;16.30;99.90;;;;;;5075145;28;20616;-70
2022/05/06 08:36:46;;;;;;;4.63;4.23;;;16.30;99.90;;;;;;5074993;28;20605;-71
2022/05/06 08:39:12;;;;;;;8.03;4.63;;;16.60;99.90;;;;;;5092639;28;20629;-71
2022/05/06 08:41:40;;;;;;;8.50;4.30;;;16.40;99.90;;;;;;5092567;28;20653;-72
2022/05/06 08:52:31;;;;;;;4.70;4.20;;;16.60;99.90;;;;;;5093064;28;20588;-72
2022/05/06 08:54:58;;;;;;;9.17;4.57;;;16.90;99.90;;;;;;5093083;28;20639;-70
2022/05/06 08:57:25;;;;;;;11.80;4.20;;;17.10;99.90;;;;;;5092772;28;20661;-71
2022/05/06 08:59:52;;;;;;;15.10;5.70;;;17.10;99.90;;;;;;5092788;28;20963;-71
2022/05/06 09:02:19;;;;;;;11.20;4.50;;;17.10;99.90;;;;;;5092669;28;20653;-72
2022/05/06 09:04:45;;;;;;;7.97;4.50;;;16.90;99.90;;;;;;5075988;28;20625;-71
2022/05/06 09:07:14;;;;;;;8.23;4.43;;;17.10;99.90;;;;;;5096309;28;21250;-71
2022/05/06 09:09:40;;;;;;;7.93;4.07;;;17.20;99.90;;;;;;5096900;28;20608;-71
2022/05/06 09:17:47;;;;;;;6.57;4.10;;;17.40;99.90;;;;;;5097048;28;20560;-70
2022/05/06 09:20:21;;;;;;;6.63;3.93;;;17.40;99.90;;;;;;5097390;28;20620;-70
2022/05/06 09:22:51;;;;;;;7.13;4.03;;;17.50;99.90;;;;;;5096618;28;21183;-71
2022/05/06 09:25:36;;;;;;;5.00;4.60;;;17.70;99.90;;;;;;5097073;28;20605;-70
2022/05/06 09:28:03;;;;;;;7.40;4.07;;;17.90;99.90;;;;;;5097149;28;20601;-71
2022/05/06 09:30:29;;;;;;;6.63;5.50;;;18.20;99.90;;;;;;5096731;28;20635;-71
2022/05/06 09:32:56;;;;;;;5.63;3.73;;;18.30;99.90;;;;;;5096276;28;20661;-72
2022/05/06 09:35:27;;;;;;;4.23;3.33;;;18.50;99.90;;;;;;5096818;28;20617;-71
2022/05/06 09:37:53;;;;;;;7.40;4.03;;;18.30;99.90;;;;;;5096252;28;21198;-71
2022/05/06 09:40:21;;;;;;;4.83;3.53;;;18.30;99.90;;;;;;5077906;28;20621;-72
2022/05/06 09:42:59;;;;;;;5.03;3.57;;;18.40;99.90;;;;;;5096662;28;20613;-73
2022/05/06 09:45:31;;;;;;;5.40;3.50;;;18.50;99.90;;;;;;5096641;28;20625;-73
2022/05/06 09:47:58;;;;;;;8.07;3.53;;;18.60;99.90;;;;;;5097255;28;21014;-73
2022/05/06 09:50:42;;;;;;;5.93;3.67;;;18.70;99.90;;;;;;5095895;28;21222;-73
2022/05/06 09:53:11;;;;;;;10.73;4.27;;;18.80;99.90;;;;;;5095828;28;20980;-73
2022/05/06 09:55:39;;;;;;;7.10;4.20;;;19.10;99.90;;;;;;5096860;28;20610;-73
2022/05/06 09:58:08;;;;;;;3.40;3.10;;;19.00;99.90;;;;;;5096681;28;20605;-73
2022/05/06 10:00:35;;;;;;;5.10;3.70;;;19.20;99.90;;;;;;5096216;28;20645;-73
2022/05/06 10:03:02;;;;;;;4.97;2.93;;;19.50;99.90;;;;;;5095602;28;20613;-73
2022/05/06 10:05:34;;;;;;;3.53;3.30;;;19.30;99.90;;;;;;5077593;28;20640;-73
2022/05/06 10:08:14;;;;;;;3.37;3.03;;;19.50;99.90;;;;;;5096161;28;20649;-73
2022/05/06 10:11:14;;;;;;;6.83;3.80;;;19.40;99.90;;;;;;5096139;28;20577;-73
2022/05/06 10:13:46;;;;;;;5.63;3.57;;;19.50;99.90;;;;;;5095854;28;20585;-73
2022/05/06 10:16:13;;;;;;;5.90;3.10;;;19.40;99.90;;;;;;5076292;28;20659;-73
2022/05/06 10:18:42;;;;;;;5.63;3.47;;;19.40;99.90;;;;;;5095750;28;20622;-73
2022/05/06 10:21:09;;;;;;;6.83;3.17;;;19.60;99.90;;;;;;5095381;28;21029;-73
2022/05/06 10:23:43;;;;;;;3.47;3.03;;;19.50;99.90;;;;;;5095875;28;20612;-73
2022/05/06 10:26:29;;;;;;;5.80;3.00;;;19.60;99.90;;;;;;5096333;28;21160;-73
2022/05/06 10:34:29;;;;;;;3.63;3.30;;;19.90;99.90;;;;;;5095614;28;20580;-73
2022/05/06 10:37:01;;;;;;;5.30;3.50;;;19.50;99.90;;;;;;5095000;28;21007;-73
2022/05/06 10:39:37;;;;;;;5.80;3.30;;;19.50;99.90;;;;;;5094631;28;20617;-73
2022/05/06 10:42:06;;;;;;;3.50;3.30;;;19.30;99.90;;;;;;5095083;28;20665;-73
2022/05/06 10:44:39;;;;;;;2.93;2.73;;;19.10;99.90;;;;;;5094596;28;20622;-73
2022/05/06 10:47:11;;;;;;;4.03;3.10;;;19.60;99.90;;;;;;5095039;28;20569;-73
2022/05/06 10:49:38;;;;;;;3.23;2.93;;;20.00;99.90;;;;;;5094869;28;20951;-73
2022/05/06 10:52:17;;;;;;;6.87;3.30;;;19.90;99.90;;;;;;5094978;28;20621;-73
2022/05/06 10:54:52;;;;;;;4.80;3.00;;;19.80;99.90;;;;;;5094324;28;20624;-73
2022/05/06 10:57:30;;;;;;;3.60;3.17;;;20.10;99.90;;;;;;5094335;28;20628;-73
2022/05/06 11:00:03;;;;;;;3.53;2.93;;;20.50;99.90;;;;;;5094903;28;20585;-73
2022/05/06 11:02:38;;;;;;;7.43;3.23;;;20.10;99.90;;;;;;5077365;28;20657;-73
2022/05/06 11:05:15;;;;;;;5.10;3.13;;;20.40;99.90;;;;;;5094281;28;20617;-73
2022/05/06 11:07:45;;;;;;;6.47;3.37;;;21.00;99.90;;;;;;5095143;28;20641;-73
2022/05/06 11:10:20;;;;;;;11.97;2.90;;;20.80;99.90;;;;;;5076638;28;20667;-73
2022/05/06 11:12:57;;;;;;;3.53;2.90;;;20.90;99.90;;;;;;5076673;28;20625;-73
2022/05/06 11:15:32;;;;;;;8.80;3.27;;;21.00;99.90;;;;;;5094719;28;20581;-74
2022/05/06 11:18:00;;;;;;;6.53;4.07;;;21.50;99.90;;;;;;5075851;28;20625;-74
2022/05/06 11:20:29;;;;;;;3.93;3.23;;;22.00;99.90;;;;;;5077286;28;20615;-74
2022/05/06 11:22:58;;;;;;;3.20;2.90;;;21.50;99.90;;;;;;5076809;28;20621;-74
2022/05/06 11:25:30;;;;;;;10.70;3.80;;;21.10;99.90;;;;;;5094552;28;21221;-74
2022/05/06 11:27:59;;;;;;;3.50;3.30;;;21.20;99.90;;;;;;5094683;28;20589;-73
2022/05/06 11:30:27;;;;;;;5.07;3.00;;;21.60;99.90;;;;;;5095302;28;20644;-75
2022/05/06 11:32:56;;;;;;;5.57;3.17;;;22.40;99.90;;;;;;5095687;28;20605;-74
2022/05/06 11:35:28;;;;;;;5.10;3.10;;;21.60;99.90;;;;;;5076241;28;21190;-74
2022/05/06 11:37:55;;;;;;;5.70;3.60;;;21.50;99.90;;;;;;5095309;28;21245;-72
2022/05/06 11:42:53;;;;;;;5.53;3.93;;;23.30;99.90;;;;;;5094519;28;20653;-73
2022/05/06 11:48:11;;;;;;;12.50;4.20;;;22.70;99.90;;;;;;5094694;28;20574;-73
2022/05/06 11:50:39;;;;;;;3.73;3.23;;;23.30;99.90;;;;;;5094578;28;20608;-73
2022/05/06 11:53:10;;;;;;;3.97;3.60;;;22.70;99.90;;;;;;5094115;28;20628;-73
2022/05/06 11:55:39;;;;;;;4.30;3.93;;;23.90;99.90;;;;;;5093784;28;20613;-73
2022/05/06 11:58:09;;;;;;;3.73;3.43;;;23.40;99.90;;;;;;5094131;28;20621;-73
2022/05/06 12:00:36;;;;;;;4.60;4.30;;;23.30;99.90;;;;;;5094448;28;20983;-74
2022/05/06 12:03:07;;;;;;;5.20;3.87;;;24.60;99.90;;;;;;5094208;28;20602;-74
2022/05/06 12:05:34;;;;;;;10.67;3.67;;;24.60;99.90;;;;;;5094833;28;21002;-73
2022/05/06 12:08:01;;;;;;;3.90;3.40;;;24.20;99.90;;;;;;5094338;28;21053;-74
2022/05/06 12:10:29;;;;;;;3.53;3.30;;;22.50;99.90;;;;;;5095532;28;20944;-74
2022/05/06 12:13:00;;;;;;;5.73;3.40;;;22.90;99.90;;;;;;5095266;28;20626;-74
2022/05/06 12:15:47;;;;;;;3.13;2.87;;;23.50;99.90;;;;;;5094262;28;21007;-74
2022/05/06 12:18:24;;;;;;;6.80;3.57;;;24.40;99.90;;;;;;5076618;28;20689;-74
2022/05/06 12:20:50;;;;;;;6.10;3.80;;;25.40;99.90;;;;;;5094111;28;20708;-74
2022/05/06 12:23:29;;;;;;;3.47;3.20;;;25.30;99.90;;;;;;5075899;28;20641;-73
2022/05/06 12:25:57;;;;;;;3.70;3.50;;;23.80;99.90;;;;;;5059142;28;20632;-73
2022/05/06 12:28:24;;;;;;;6.33;3.53;;;23.80;99.90;;;;;;5094138;28;20605;-74
2022/05/06 12:30:59;;;;;;;3.57;3.40;;;24.20;99.90;;;;;;5075509;28;20609;-74
2022/05/06 12:33:45;;;;;;;4.80;3.70;;;24.50;99.90;;;;;;5093094;28;20623;-74
2022/05/06 12:36:19;;;;;;;4.13;3.33;;;23.60;99.90;;;;;;5093740;28;21179;-73
2022/05/06 12:38:48;;;;;;;4.20;3.10;;;23.30;99.90;;;;;;5093380;28;20613;-74
2022/05/06 12:41:26;;;;;;;5.23;3.70;;;24.60;99.90;;;;;;5059471;28;20657;-73
2022/05/06 12:43:58;;;;;;;4.87;3.27;;;25.00;99.90;;;;;;5093715;28;21055;-74
2022/05/06 12:46:26;;;;;;;3.57;3.27;;;25.30;99.90;;;;;;5097338;28;20940;-74
2022/05/06 12:51:42;;;;;;;3.07;2.70;;;24.90;99.90;;;;;;5094207;28;20593;-73
2022/05/06 12:54:12;;;;;;;3.50;3.30;;;25.10;99.90;;;;;;5076166;28;20613;-74
2022/05/06 12:56:39;;;;;;;3.37;3.07;;;25.00;99.90;;;;;;5094288;28;20561;-74
2022/05/06 12:59:08;;;;;;;5.10;3.40;;;25.80;99.90;;;;;;5077050;28;20678;-74
2022/05/06 13:01:35;;;;;;;4.23;3.83;;;25.40;99.90;;;;;;5094159;28;20657;-74
2022/05/06 13:04:01;;;;;;;3.67;3.47;;;25.70;99.90;;;;;;5075807;28;20617;-74
2022/05/06 13:06:31;;;;;;;3.37;3.17;;;25.90;99.90;;;;;;5094066;28;20702;-73
2022/05/06 13:08:59;;;;;;;3.23;2.93;;;26.20;99.90;;;;;;5094352;28;20692;-74
2022/05/06 13:11:26;;;;;;;6.30;3.40;;;26.00;99.90;;;;;;5094639;28;20597;-73
2022/05/06 13:13:52;;;;;;;3.10;2.87;;;26.60;99.90;;;;;;5094760;28;21179;-72
2022/05/06 13:16:19;;;;;;;3.57;3.13;;;26.60;99.90;;;;;;5078438;28;20971;-73
2022/05/06 13:18:46;;;;;;;5.60;3.67;;;26.90;99.90;;;;;;5095963;28;20617;-73
2022/05/06 13:21:13;;;;;;;4.30;3.23;;;27.70;99.90;;;;;;5094327;28;21237;-72
2022/05/06 13:23:42;;;;;;;3.10;3.00;;;27.30;99.90;;;;;;5094119;28;20605;-73
2022/05/06 13:26:09;;;;;;;4.13;3.43;;;27.50;99.90;;;;;;5094070;28;20618;-73
2022/05/06 13:28:36;;;;;;;3.30;3.00;;;26.60;99.90;;;;;;5093446;28;20637;-73
2022/05/06 13:31:02;;;;;;;4.17;3.23;;;27.00;99.90;;;;;;5093503;28;21188;-74
2022/05/06 13:33:31;;;;;;;5.43;3.03;;;26.60;99.90;;;;;;5094081;28;20628;-73
2022/05/06 13:36:01;;;;;;;4.03;3.63;;;25.60;99.90;;;;;;5093665;28;20648;-73
2022/05/06 13:38:27;;;;;;;2.90;2.80;;;25.00;99.90;;;;;;5094637;28;20609;-73
2022/05/06 13:40:53;;;;;;;3.50;3.00;;;25.10;99.90;;;;;;5094093;28;20627;-73
2022/05/06 13:43:20;;;;;;;3.40;3.20;;;25.40;99.90;;;;;;5076589;28;20665;-73
2022/05/06 13:45:46;;;;;;;4.03;3.67;;;25.80;99.90;;;;;;5094123;28;20968;-73
2022/05/06 13:48:13;;;;;;;10.93;3.67;;;26.10;99.90;;;;;;5094628;28;20617;-73